Med Cerkezkoy — TCA4407 — position and weather

sailwx.info

Track history (hours):
 
Tides and Currents Weather Stations Pressure Air Temp Water Temp Dewpoint Dewpoint Depression Visibility Wind Speed Wind Dir Waves Ship Positions

Med Cerkezkoy

Last reported at 2017-Sep-13 11:33 UTC. Time now 2017-Sep-23 07:43 UTC.
Position N 37°25' E 025°55'.
Warning: this ship's position is 9 days out of date.

Length 140 m; draft 7.6 m.

Type: Ship (hazmat cat A). MMSI: 271044659.

Date/timePositionNaut miles runAvg speedWind from/ knotsBaromVisibWave heightAir tempDewpointWater temp
2017-Sep-13 11:33N 37°25' E 025°55'010.2
2017-Sep-13 11:30N 37°25' E 025°55'510.2
2017-Sep-13 11:00N 37°30' E 025°52'510.4
2017-Sep-13 10:30N 37°35' E 025°50'510.6
2017-Sep-13 10:00N 37°40' E 025°49'510.5
2017-Sep-13 09:30N 37°45' E 025°47'195 4.3
2017-Sep-11 12:24N 40°45' E 027°26'410.0
2017-Sep-11 11:58N 40°42' E 027°22'54 9.7
2017-Sep-11 06:25N 40°12' E 026°23'12 8.4
2017-Sep-11 04:59N 40°02' E 026°14'5 8.1
2017-Sep-11 04:21N 40°01' E 026°08'3 7.6
2017-Sep-11 03:57N 39°60' E 026°04'4 8.6
2017-Sep-11 03:30N 39°58' E 025°60'4 9.0
2017-Sep-11 03:00N 39°55' E 025°56'4 8.4
2017-Sep-11 02:30N 39°51' E 025°52'8 9.2
2017-Sep-11 01:40N 39°44' E 025°50'310.6
2017-Sep-11 01:21N 39°40' E 025°49'510.7
2017-Sep-11 00:54N 39°36' E 025°49'  
2017-Sep-08 14:46N 37°34' E 025°55'2 9.4
2017-Sep-08 14:30N 37°32' E 025°55'447 8.9
2017-Sep-06 12:28N 34°10' E 034°08'10 9.5
2017-Sep-06 11:24N 34°08' E 034°20'11 9.8
2017-Sep-06 10:15N 34°04' E 034°32'52 2.1
2017-Sep-05 09:43N 33°57' E 035°34'28 8.1
2017-Sep-05 06:20N 33°58' E 035°01'76 2.4
2017-Sep-03 22:56N 35°10' E 035°32'4 9.1
2017-Sep-03 22:27N 35°05' E 035°33'  
Track history (hours):
 
Tides and Currents Weather Stations Pressure Air Temp Water Temp Dewpoint Dewpoint Depression Visibility Wind Speed Wind Dir Waves Ship Positions

Med Cerkezkoy

Last reported at 2017-Sep-13 11:33 UTC. Time now 2017-Sep-23 07:43 UTC.
Position N 37°25' E 025°55'.
Warning: this ship's position is 9 days out of date.

Length 140 m; draft 7.6 m.

Type: Ship (hazmat cat A). MMSI: 271044659.

Date/timePositionNaut miles runAvg speedWind from/ knotsBaromVisibWave heightAir tempDewpointWater temp
2017-Sep-13 11:33N 37°25' E 025°55'010.2
2017-Sep-13 11:30N 37°25' E 025°55'510.2
2017-Sep-13 11:00N 37°30' E 025°52'510.4
2017-Sep-13 10:30N 37°35' E 025°50'510.6
2017-Sep-13 10:00N 37°40' E 025°49'510.5
2017-Sep-13 09:30N 37°45' E 025°47'195 4.3
2017-Sep-11 12:24N 40°45' E 027°26'410.0
2017-Sep-11 11:58N 40°42' E 027°22'54 9.7
2017-Sep-11 06:25N 40°12' E 026°23'12 8.4
2017-Sep-11 04:59N 40°02' E 026°14'5 8.1
2017-Sep-11 04:21N 40°01' E 026°08'3 7.6
2017-Sep-11 03:57N 39°60' E 026°04'4 8.6
2017-Sep-11 03:30N 39°58' E 025°60'4 9.0
2017-Sep-11 03:00N 39°55' E 025°56'4 8.4
2017-Sep-11 02:30N 39°51' E 025°52'8 9.2
2017-Sep-11 01:40N 39°44' E 025°50'310.6
2017-Sep-11 01:21N 39°40' E 025°49'510.7
2017-Sep-11 00:54N 39°36' E 025°49'  
2017-Sep-08 14:46N 37°34' E 025°55'2 9.4
2017-Sep-08 14:30N 37°32' E 025°55'447 8.9
2017-Sep-06 12:28N 34°10' E 034°08'10 9.5
2017-Sep-06 11:24N 34°08' E 034°20'11 9.8
2017-Sep-06 10:15N 34°04' E 034°32'52 2.1
2017-Sep-05 09:43N 33°57' E 035°34'28 8.1
2017-Sep-05 06:20N 33°58' E 035°01'76 2.4
2017-Sep-03 22:56N 35°10' E 035°32'4 9.1
2017-Sep-03 22:27N 35°05' E 035°33'  

Dump ship's entire track history